createdAt,value
2017-08-25T00:00:14.900Z,4.70
2017-08-25T00:02:40.675Z,3.73
2017-08-25T00:05:06.477Z,4.80
2017-08-25T00:07:32.229Z,3.20
2017-08-25T00:09:57.984Z,4.00
2017-08-25T00:12:23.756Z,3.40
2017-08-25T00:14:49.595Z,3.60
2017-08-25T00:17:15.380Z,4.30
2017-08-25T00:19:41.138Z,2.67
2017-08-25T00:22:06.904Z,2.00
2017-08-25T00:24:32.677Z,2.57
2017-08-25T00:26:58.490Z,3.20
2017-08-25T00:29:24.233Z,3.80
2017-08-25T00:31:49.991Z,4.03
2017-08-25T00:34:15.803Z,3.27
2017-08-25T00:36:41.568Z,2.53
2017-08-25T00:39:07.317Z,3.13
2017-08-25T00:41:33.123Z,2.60
2017-08-25T00:43:58.903Z,2.90
2017-08-25T00:46:24.701Z,2.17
2017-08-25T00:48:50.479Z,2.60
2017-08-25T00:51:16.241Z,2.87
2017-08-25T00:53:42.055Z,3.33
2017-08-25T00:56:07.938Z,3.17
2017-08-25T00:58:33.730Z,2.77
2017-08-25T01:00:59.517Z,2.33
2017-08-25T01:03:25.270Z,2.90
2017-08-25T01:05:51.088Z,3.20
2017-08-25T01:08:16.856Z,3.43
2017-08-25T01:10:42.625Z,3.70
2017-08-25T01:13:08.438Z,3.10
2017-08-25T01:15:34.212Z,3.07
2017-08-25T01:18:00.038Z,3.13
2017-08-25T01:20:25.824Z,2.97
2017-08-25T01:22:51.598Z,2.93
2017-08-25T01:25:17.425Z,3.40
2017-08-25T01:27:43.221Z,2.87
2017-08-25T01:30:08.996Z,3.60
2017-08-25T01:32:34.795Z,2.70
2017-08-25T01:35:00.558Z,2.80
2017-08-25T01:37:26.311Z,2.93
2017-08-25T01:39:52.116Z,2.50
2017-08-25T01:42:17.955Z,2.73
2017-08-25T01:44:43.732Z,3.27
2017-08-25T01:47:09.491Z,2.87
2017-08-25T01:49:35.300Z,2.60
2017-08-25T01:52:01.075Z,2.73
2017-08-25T01:54:26.839Z,4.00
2017-08-25T01:56:52.623Z,3.90
2017-08-25T01:59:18.442Z,3.20
2017-08-25T02:01:44.218Z,3.00
2017-08-25T02:04:09.983Z,2.97
2017-08-25T02:06:35.774Z,3.50
2017-08-25T02:09:01.559Z,3.60
2017-08-25T02:11:27.335Z,3.30
2017-08-25T02:13:53.155Z,3.73
2017-08-25T02:16:18.963Z,3.37
2017-08-25T02:18:44.761Z,3.03
2017-08-25T02:21:10.634Z,3.43
2017-08-25T02:23:36.427Z,3.47
2017-08-25T02:26:02.188Z,3.40
2017-08-25T02:28:28.001Z,3.13
2017-08-25T02:30:53.787Z,3.83
2017-08-25T02:33:19.626Z,3.57
2017-08-25T02:35:45.377Z,3.47
2017-08-25T02:38:11.156Z,3.07
2017-08-25T02:40:37.014Z,3.43
2017-08-25T02:43:02.795Z,3.50
2017-08-25T02:45:28.561Z,3.60
2017-08-25T02:47:54.351Z,3.80
2017-08-25T02:50:20.171Z,4.37
2017-08-25T02:52:45.936Z,5.07
2017-08-25T02:55:11.709Z,4.03
2017-08-25T02:57:37.490Z,4.23
2017-08-25T03:00:03.278Z,4.00
2017-08-25T03:02:29.063Z,3.40
2017-08-25T03:04:54.842Z,3.40
2017-08-25T03:07:20.592Z,3.40
2017-08-25T03:09:46.528Z,3.17
2017-08-25T03:12:12.287Z,3.87
2017-08-25T03:14:38.053Z,3.47
2017-08-25T03:17:03.882Z,3.80
2017-08-25T03:19:29.640Z,3.80
2017-08-25T03:21:55.426Z,3.93
2017-08-25T03:24:21.239Z,3.50
2017-08-25T03:26:47.035Z,3.60
2017-08-25T03:29:12.835Z,3.20
2017-08-25T03:31:38.611Z,3.10
2017-08-25T03:34:04.378Z,3.60
2017-08-25T03:36:30.143Z,3.93
2017-08-25T03:38:55.947Z,3.33
2017-08-25T03:41:21.752Z,3.43
2017-08-25T03:43:47.512Z,3.90
2017-08-25T03:46:13.271Z,3.77
2017-08-25T03:48:39.061Z,3.53
2017-08-25T03:51:04.811Z,3.63
2017-08-25T03:53:30.611Z,4.47
2017-08-25T03:55:56.423Z,4.10
2017-08-25T03:58:22.179Z,5.03
2017-08-25T04:00:47.970Z,4.77
2017-08-25T04:03:13.796Z,5.00
2017-08-25T04:05:39.624Z,5.43
2017-08-25T04:08:05.383Z,5.90
2017-08-25T04:10:31.207Z,5.40
2017-08-25T04:12:56.943Z,5.87
2017-08-25T04:15:22.703Z,6.00
2017-08-25T04:17:48.483Z,5.63
2017-08-25T04:20:14.242Z,7.10
2017-08-25T04:22:40.068Z,5.40
2017-08-25T04:25:05.854Z,5.17
2017-08-25T04:27:31.652Z,5.73
2017-08-25T04:29:57.506Z,5.90
2017-08-25T04:32:23.319Z,5.73
2017-08-25T04:34:49.118Z,5.83
2017-08-25T04:37:14.911Z,5.73
2017-08-25T04:39:40.763Z,6.10
2017-08-25T04:42:08.288Z,5.53
2017-08-25T04:44:34.157Z,6.03
2017-08-25T04:46:59.999Z,6.40
2017-08-25T04:49:25.803Z,5.47
2017-08-25T04:51:51.659Z,5.33
2017-08-25T04:54:17.433Z,6.03
2017-08-25T04:56:43.268Z,6.47
2017-08-25T04:59:09.743Z,6.57
2017-08-25T05:01:35.534Z,6.70
2017-08-25T05:04:01.379Z,6.50
2017-08-25T05:06:27.168Z,7.40
2017-08-25T05:08:53.046Z,6.47
2017-08-25T05:11:18.796Z,6.20
2017-08-25T05:13:44.659Z,5.63
2017-08-25T05:16:10.511Z,6.73
2017-08-25T05:18:36.583Z,6.90
2017-08-25T05:21:02.356Z,6.00
2017-08-25T05:23:28.144Z,7.13
2017-08-25T05:25:53.992Z,6.43
2017-08-25T05:28:19.828Z,5.30
2017-08-25T05:30:45.675Z,5.53
2017-08-25T05:33:11.463Z,6.33
2017-08-25T05:35:37.310Z,5.73
2017-08-25T05:38:03.170Z,5.57
2017-08-25T05:40:28.913Z,6.37
2017-08-25T05:42:54.775Z,5.57
2017-08-25T05:45:20.585Z,6.50
2017-08-25T05:47:46.335Z,5.50
2017-08-25T05:50:12.099Z,6.67
2017-08-25T05:52:37.895Z,6.80
2017-08-25T05:55:03.684Z,5.53
2017-08-25T05:57:29.435Z,4.47
2017-08-25T05:59:55.231Z,6.50
2017-08-25T06:02:20.978Z,5.50
2017-08-25T06:04:46.782Z,6.00
2017-08-25T06:07:12.578Z,6.40
2017-08-25T06:09:38.392Z,6.13
2017-08-25T06:12:04.147Z,5.30
2017-08-25T06:14:29.912Z,5.70
2017-08-25T06:16:55.706Z,5.20
2017-08-25T06:19:21.463Z,5.70
2017-08-25T06:21:47.270Z,5.23
2017-08-25T06:24:13.050Z,5.30
2017-08-25T06:26:38.808Z,6.10
2017-08-25T06:29:04.598Z,6.17
2017-08-25T06:31:30.343Z,6.47
2017-08-25T06:33:56.217Z,5.57
2017-08-25T06:36:21.999Z,5.57
2017-08-25T06:38:47.787Z,6.63
2017-08-25T06:41:13.546Z,5.30
2017-08-25T06:43:39.327Z,5.33
2017-08-25T06:46:05.123Z,4.97
2017-08-25T06:48:30.935Z,6.13
2017-08-25T06:50:56.740Z,6.00
2017-08-25T06:53:22.525Z,5.57
2017-08-25T06:55:48.281Z,4.97
2017-08-25T06:58:14.119Z,5.87
2017-08-25T07:00:39.958Z,4.93
2017-08-25T07:03:05.810Z,5.10
2017-08-25T07:05:31.595Z,5.13
2017-08-25T07:07:57.407Z,5.97
2017-08-25T07:10:23.204Z,5.60
2017-08-25T07:12:48.957Z,5.40
2017-08-25T07:15:14.706Z,5.13
2017-08-25T07:17:40.482Z,4.77
2017-08-25T07:20:06.243Z,4.83
2017-08-25T07:22:31.995Z,5.93
2017-08-25T07:24:57.815Z,4.73
2017-08-25T07:27:23.563Z,5.10
2017-08-25T07:29:49.326Z,4.30
2017-08-25T07:32:15.191Z,4.50
2017-08-25T07:34:40.937Z,4.60
2017-08-25T07:37:06.851Z,4.17
2017-08-25T07:39:32.612Z,3.93
2017-08-25T07:41:58.501Z,4.30
2017-08-25T07:44:24.299Z,5.20
2017-08-25T07:46:50.084Z,3.43
2017-08-25T07:49:15.909Z,4.20
2017-08-25T07:51:41.704Z,4.60
2017-08-25T07:54:07.460Z,3.40
2017-08-25T07:56:33.341Z,4.17
2017-08-25T07:58:59.109Z,3.50
2017-08-25T08:01:24.911Z,3.53
2017-08-25T08:03:50.708Z,3.93
2017-08-25T08:06:16.459Z,3.97
2017-08-25T08:08:42.322Z,4.00
2017-08-25T08:11:08.109Z,4.00
2017-08-25T08:13:33.891Z,4.00
2017-08-25T08:15:59.655Z,3.80
2017-08-25T08:18:25.427Z,3.83
2017-08-25T08:20:51.231Z,2.93
2017-08-25T08:23:17.032Z,2.70
2017-08-25T08:25:42.799Z,3.67
2017-08-25T08:28:08.638Z,2.90
2017-08-25T08:30:34.390Z,4.00
2017-08-25T08:33:00.187Z,3.13
2017-08-25T08:35:26.022Z,3.47
2017-08-25T08:37:51.809Z,3.77
2017-08-25T08:40:17.584Z,2.80
2017-08-25T08:42:43.360Z,3.47
2017-08-25T08:45:09.147Z,3.37
2017-08-25T08:47:34.931Z,3.63
2017-08-25T08:50:00.695Z,3.60
2017-08-25T08:52:26.493Z,3.73
2017-08-25T08:54:53.216Z,3.20
2017-08-25T08:57:19.035Z,3.67
2017-08-25T08:59:44.838Z,3.90
2017-08-25T09:02:10.688Z,3.27
2017-08-25T09:04:36.470Z,3.83
2017-08-25T09:07:02.231Z,3.10
2017-08-25T09:09:28.032Z,3.93
2017-08-25T09:11:53.863Z,3.97
2017-08-25T09:14:19.715Z,3.90
2017-08-25T09:16:45.512Z,3.33
2017-08-25T09:19:11.303Z,3.97
2017-08-25T09:21:37.073Z,4.00
2017-08-25T09:24:02.992Z,4.17
2017-08-25T09:26:28.820Z,3.90
2017-08-25T09:28:54.614Z,3.67
2017-08-25T09:31:20.462Z,4.23
2017-08-25T09:33:46.469Z,3.80
2017-08-25T09:36:12.309Z,3.83
2017-08-25T09:38:38.159Z,4.20
2017-08-25T09:41:03.918Z,3.80
2017-08-25T09:43:29.735Z,4.17
2017-08-25T09:45:55.627Z,3.83
2017-08-25T09:48:21.413Z,4.10
2017-08-25T09:50:47.197Z,4.60
2017-08-25T09:53:12.971Z,3.97
2017-08-25T09:55:38.914Z,4.03
2017-08-25T09:58:04.887Z,4.30
2017-08-25T10:00:30.751Z,3.77
2017-08-25T10:02:56.554Z,3.90
2017-08-25T10:05:22.358Z,3.83
2017-08-25T10:07:48.121Z,5.57
2017-08-25T10:10:13.945Z,4.50
2017-08-25T10:12:39.745Z,4.37
2017-08-25T10:15:05.503Z,5.40
2017-08-25T10:17:31.291Z,5.00
2017-08-25T10:19:57.054Z,5.90
2017-08-25T10:22:22.928Z,5.60
2017-08-25T10:24:48.721Z,6.50
2017-08-25T10:27:14.538Z,5.73
2017-08-25T10:29:40.302Z,5.00
2017-08-25T10:32:06.126Z,5.27
2017-08-25T10:34:44.299Z,6.10
2017-08-25T10:37:22.379Z,6.57
2017-08-25T10:40:00.572Z,5.80
2017-08-25T10:42:38.727Z,5.87
2017-08-25T10:45:14.531Z,6.00
2017-08-25T10:47:40.351Z,5.20
2017-08-25T10:50:06.203Z,6.00
2017-08-25T10:52:31.983Z,5.70
2017-08-25T10:54:58.292Z,5.43
2017-08-25T10:57:24.156Z,4.67
2017-08-25T10:59:49.952Z,5.37
2017-08-25T11:02:15.743Z,5.10
2017-08-25T11:04:41.562Z,5.27
2017-08-25T11:07:07.311Z,5.33
2017-08-25T11:09:33.102Z,5.10
2017-08-25T11:11:58.876Z,5.70
2017-08-25T11:14:24.650Z,4.37
2017-08-25T11:16:50.518Z,5.47
2017-08-25T11:19:16.286Z,5.03
2017-08-25T11:21:42.031Z,4.80
2017-08-25T11:24:07.949Z,5.80
2017-08-25T11:26:33.899Z,4.87
2017-08-25T11:28:59.702Z,4.73
2017-08-25T11:31:25.459Z,5.20
2017-08-25T11:33:51.322Z,5.27
2017-08-25T11:36:17.077Z,5.10
2017-08-25T11:38:42.877Z,4.93
2017-08-25T11:41:08.735Z,5.30
2017-08-25T11:43:34.506Z,4.80
2017-08-25T11:46:00.339Z,4.07
2017-08-25T11:48:26.101Z,4.83
2017-08-25T11:50:51.920Z,5.60
2017-08-25T11:53:17.694Z,5.53
2017-08-25T11:55:43.526Z,5.33
2017-08-25T11:58:09.312Z,4.53
2017-08-25T12:00:35.122Z,5.37
2017-08-25T12:03:00.934Z,5.00
2017-08-25T12:05:26.759Z,4.93
2017-08-25T12:07:52.538Z,5.50
2017-08-25T12:10:18.344Z,4.70
2017-08-25T12:12:44.119Z,4.83
2017-08-25T12:15:09.942Z,4.93
2017-08-25T12:17:35.705Z,5.23
2017-08-25T12:20:01.479Z,4.73
2017-08-25T12:22:27.241Z,5.43
2017-08-25T12:24:53.047Z,5.23
2017-08-25T12:27:19.580Z,5.27
2017-08-25T12:29:45.331Z,5.03
2017-08-25T12:32:11.111Z,4.50
2017-08-25T12:34:36.903Z,4.70
2017-08-25T12:37:02.750Z,4.43
2017-08-25T12:39:28.545Z,4.53
2017-08-25T12:41:54.299Z,5.17
2017-08-25T12:44:20.082Z,4.70
2017-08-25T12:46:45.836Z,3.93
2017-08-25T12:49:11.648Z,4.70
2017-08-25T12:51:37.411Z,4.47
2017-08-25T12:54:03.171Z,4.83
2017-08-25T12:56:29.066Z,4.40
2017-08-25T12:58:54.834Z,4.57
2017-08-25T13:01:20.640Z,4.00
2017-08-25T13:03:46.398Z,4.63
2017-08-25T13:06:12.154Z,4.63
2017-08-25T13:08:37.929Z,5.13
2017-08-25T13:11:03.690Z,4.63
2017-08-25T13:13:29.554Z,6.07
2017-08-25T13:15:55.311Z,4.37
2017-08-25T13:18:21.123Z,4.40
2017-08-25T13:20:46.898Z,5.20
2017-08-25T13:23:12.649Z,4.40
2017-08-25T13:25:38.427Z,4.87
2017-08-25T13:28:04.195Z,4.93
2017-08-25T13:30:29.996Z,4.47
2017-08-25T13:32:55.804Z,4.33
2017-08-25T13:35:21.587Z,4.23
2017-08-25T13:37:47.367Z,4.23
2017-08-25T13:40:13.127Z,3.93
2017-08-25T13:42:38.915Z,5.17
2017-08-25T13:45:04.679Z,4.43
2017-08-25T13:47:30.471Z,5.23
2017-08-25T13:49:56.258Z,3.87
2017-08-25T13:52:22.154Z,3.73
2017-08-25T13:54:48.801Z,5.10
2017-08-25T13:57:14.661Z,3.97
2017-08-25T13:59:40.479Z,3.80
2017-08-25T14:02:06.311Z,4.50
2017-08-25T14:04:32.068Z,4.10
2017-08-25T14:06:57.863Z,4.47
2017-08-25T14:09:23.711Z,3.90
2017-08-25T14:11:49.454Z,3.77
2017-08-25T14:14:15.232Z,4.60
2017-08-25T14:16:40.991Z,5.40
2017-08-25T14:19:06.768Z,3.90
2017-08-25T14:21:32.645Z,3.97
2017-08-25T14:23:58.395Z,3.97
2017-08-25T14:26:24.206Z,4.33
2017-08-25T14:28:49.992Z,5.00
2017-08-25T14:31:15.767Z,4.63
2017-08-25T14:33:41.563Z,4.83
2017-08-25T14:36:07.328Z,4.07
2017-08-25T14:38:33.083Z,4.67
2017-08-25T14:40:58.873Z,3.20
2017-08-25T14:43:24.621Z,3.90
2017-08-25T14:45:50.412Z,3.70
2017-08-25T14:48:16.278Z,3.90
2017-08-25T14:50:42.124Z,3.70
2017-08-25T14:53:07.908Z,3.70
2017-08-25T14:55:33.679Z,3.63
2017-08-25T14:57:59.431Z,3.83
2017-08-25T15:00:25.227Z,4.50
2017-08-25T15:02:51.018Z,3.70
2017-08-25T15:05:16.767Z,3.80
2017-08-25T15:07:42.543Z,57.93
2017-08-25T15:10:08.315Z,21.47
2017-08-25T15:12:34.143Z,5.37
2017-08-25T15:14:59.935Z,4.10
2017-08-25T15:17:25.690Z,4.60
2017-08-25T15:19:51.460Z,4.70
2017-08-25T15:22:17.211Z,4.37
2017-08-25T15:24:43.003Z,4.50
2017-08-25T15:27:08.858Z,4.90
2017-08-25T15:29:34.615Z,4.67
2017-08-25T15:32:00.403Z,4.67
2017-08-25T15:34:26.193Z,4.60
2017-08-25T15:36:51.979Z,4.40
2017-08-25T15:39:17.754Z,4.37
2017-08-25T15:41:43.546Z,4.03
2017-08-25T15:44:09.315Z,4.50
2017-08-25T15:46:35.131Z,4.50
2017-08-25T15:49:00.892Z,4.27
2017-08-25T15:51:26.661Z,4.50
2017-08-25T15:53:52.563Z,4.47
2017-08-25T15:56:18.340Z,4.57
2017-08-25T15:58:44.150Z,4.47
2017-08-25T16:01:09.908Z,4.33
2017-08-25T16:03:35.714Z,5.10
2017-08-25T16:06:01.474Z,5.17
2017-08-25T16:08:27.224Z,4.57
2017-08-25T16:10:53.009Z,4.70
2017-08-25T16:13:18.803Z,5.27
2017-08-25T16:15:44.683Z,5.10
2017-08-25T16:18:10.480Z,4.70
2017-08-25T16:20:36.244Z,6.13
2017-08-25T16:23:02.035Z,4.50
2017-08-25T16:25:27.815Z,5.40
2017-08-25T16:27:53.599Z,5.60
2017-08-25T16:30:19.380Z,4.70
2017-08-25T16:32:45.179Z,5.50
2017-08-25T16:35:10.933Z,5.70
2017-08-25T16:37:36.728Z,5.90
2017-08-25T16:40:02.495Z,5.20
2017-08-25T16:42:28.270Z,5.27
2017-08-25T16:44:54.046Z,5.93
2017-08-25T16:47:19.863Z,5.37
2017-08-25T16:49:45.707Z,5.30
2017-08-25T16:52:11.460Z,5.47
2017-08-25T16:54:37.233Z,6.03
2017-08-25T16:57:03.010Z,5.20
2017-08-25T16:59:28.758Z,5.47
2017-08-25T17:01:54.539Z,5.93
2017-08-25T17:04:20.299Z,5.10
2017-08-25T17:06:46.087Z,5.70
2017-08-25T17:09:11.876Z,6.40
2017-08-25T17:11:37.679Z,6.40
2017-08-25T17:14:03.475Z,6.30
2017-08-25T17:16:29.286Z,6.40
2017-08-25T17:18:55.043Z,7.27
2017-08-25T17:21:20.807Z,6.00
2017-08-25T17:23:46.596Z,6.40
2017-08-25T17:26:12.345Z,5.27
2017-08-25T17:28:38.203Z,5.57
2017-08-25T17:31:03.965Z,6.20
2017-08-25T17:33:29.727Z,5.83
2017-08-25T17:35:55.531Z,6.80
2017-08-25T17:38:21.299Z,6.50
2017-08-25T17:40:47.068Z,5.87
2017-08-25T17:43:12.865Z,6.43
2017-08-25T17:45:38.629Z,5.50
2017-08-25T17:48:04.401Z,6.30
2017-08-25T17:50:30.182Z,6.90
2017-08-25T17:52:55.983Z,6.50
2017-08-25T17:55:21.743Z,6.43
2017-08-25T17:57:47.561Z,6.20
2017-08-25T18:00:13.355Z,6.60
2017-08-25T18:02:39.155Z,6.70
2017-08-25T18:05:04.983Z,7.27
2017-08-25T18:07:30.731Z,6.80
2017-08-25T18:09:56.487Z,6.90
2017-08-25T18:12:22.270Z,5.80
2017-08-25T18:14:48.032Z,7.07
2017-08-25T18:17:13.907Z,6.80
2017-08-25T18:19:39.657Z,7.10
2017-08-25T18:22:05.464Z,6.93
2017-08-25T18:24:31.220Z,7.60
2017-08-25T18:26:57.099Z,6.90
2017-08-25T18:29:22.856Z,6.90
2017-08-25T18:31:48.646Z,7.27
2017-08-25T18:34:14.443Z,7.20
2017-08-25T18:36:40.274Z,6.63
2017-08-25T18:39:06.038Z,7.03
2017-08-25T18:41:31.952Z,6.13
2017-08-25T18:43:57.763Z,7.10
2017-08-25T18:46:23.524Z,7.23
2017-08-25T18:48:49.287Z,8.20
2017-08-25T18:51:15.088Z,7.87
2017-08-25T18:53:40.912Z,8.07
2017-08-25T18:56:06.799Z,8.10
2017-08-25T18:58:32.694Z,7.40
2017-08-25T19:00:58.472Z,9.70
2017-08-25T19:03:24.587Z,8.13
2017-08-25T19:05:50.375Z,8.70
2017-08-25T19:08:16.191Z,7.60
2017-08-25T19:10:41.988Z,8.27
2017-08-25T19:13:07.751Z,8.30
2017-08-25T19:15:33.528Z,8.53
2017-08-25T19:17:59.314Z,8.33
2017-08-25T19:20:25.921Z,8.67
2017-08-25T19:22:51.695Z,7.67
2017-08-25T19:25:17.451Z,8.37
2017-08-25T19:27:43.399Z,8.87
2017-08-25T19:30:09.151Z,8.87
2017-08-25T19:32:34.966Z,9.70
2017-08-25T19:35:00.764Z,7.90
2017-08-25T19:37:26.526Z,8.60
2017-08-25T19:39:52.279Z,8.93
2017-08-25T19:42:18.115Z,9.43
2017-08-25T19:44:43.879Z,9.03
2017-08-25T19:47:09.627Z,9.40
2017-08-25T19:49:35.691Z,9.33
2017-08-25T19:52:01.442Z,9.10
2017-08-25T19:54:27.230Z,11.07
2017-08-25T19:56:53.119Z,9.60
2017-08-25T19:59:18.871Z,9.23
2017-08-25T20:01:44.771Z,10.00
2017-08-25T20:04:10.568Z,9.87
2017-08-25T20:06:36.359Z,9.30
2017-08-25T20:09:02.242Z,8.90
2017-08-25T20:11:29.110Z,9.40
2017-08-25T20:13:54.899Z,9.57
2017-08-25T20:16:20.730Z,10.03
2017-08-25T20:18:46.574Z,9.70
2017-08-25T20:21:12.362Z,9.60
2017-08-25T20:23:38.149Z,8.60
2017-08-25T20:26:03.903Z,10.57
2017-08-25T20:28:29.707Z,10.47
2017-08-25T20:30:55.496Z,9.40
2017-08-25T20:33:21.251Z,10.40
2017-08-25T20:35:47.061Z,11.10
2017-08-25T20:38:12.811Z,8.57
2017-08-25T20:40:38.583Z,9.93
2017-08-25T20:43:04.423Z,10.60
2017-08-25T20:45:30.210Z,10.37
2017-08-25T20:47:55.999Z,9.37
2017-08-25T20:50:21.778Z,10.53
2017-08-25T20:52:47.544Z,10.20
2017-08-25T20:55:13.331Z,12.40
2017-08-25T20:57:39.494Z,10.53
2017-08-25T21:00:05.439Z,11.50
2017-08-25T21:02:31.207Z,10.50
2017-08-25T21:04:57.000Z,10.00
2017-08-25T21:07:22.775Z,10.83
2017-08-25T21:09:48.548Z,11.07
2017-08-25T21:12:14.320Z,11.57
2017-08-25T21:14:40.131Z,10.07
2017-08-25T21:17:05.887Z,11.03
2017-08-25T21:19:31.718Z,10.70
2017-08-25T21:21:57.469Z,10.40
2017-08-25T21:24:23.234Z,10.47
2017-08-25T21:26:49.056Z,10.03
2017-08-25T21:29:14.818Z,10.47
2017-08-25T21:31:40.617Z,9.33
2017-08-25T21:34:07.735Z,10.20
2017-08-25T21:36:33.496Z,9.10
2017-08-25T21:38:59.270Z,10.47
2017-08-25T21:41:25.065Z,11.13
2017-08-25T21:43:50.867Z,10.83
2017-08-25T21:46:16.624Z,9.47
2017-08-25T21:48:42.378Z,10.40
2017-08-25T21:51:08.166Z,9.20
2017-08-25T21:53:33.951Z,9.70
2017-08-25T21:55:59.727Z,11.90
2017-08-25T21:58:25.499Z,9.60
2017-08-25T22:00:51.299Z,10.90
2017-08-25T22:03:17.052Z,11.63
2017-08-25T22:05:42.821Z,10.97
2017-08-25T22:08:08.526Z,11.57
2017-08-25T22:10:34.273Z,11.43
2017-08-25T22:13:00.040Z,11.23
2017-08-25T22:15:25.831Z,11.83
2017-08-25T22:17:51.591Z,11.97
2017-08-25T22:20:17.376Z,11.77
2017-08-25T22:22:43.143Z,12.20
2017-08-25T22:25:09.307Z,10.63
2017-08-25T22:27:35.091Z,11.23
2017-08-25T22:30:01.549Z,9.70
2017-08-25T22:32:27.340Z,11.07
2017-08-25T22:34:53.104Z,10.03
2017-08-25T22:37:18.888Z,10.20
2017-08-25T22:39:44.794Z,11.93
2017-08-25T22:42:10.580Z,13.57
2017-08-25T22:44:36.340Z,11.17
2017-08-25T22:47:02.114Z,10.37
2017-08-25T22:49:27.895Z,10.87
2017-08-25T22:51:53.651Z,10.60
2017-08-25T22:54:19.443Z,10.30
2017-08-25T22:56:45.211Z,10.53
2017-08-25T22:59:10.980Z,10.63
2017-08-25T23:01:36.786Z,10.50
2017-08-25T23:04:02.559Z,10.80
2017-08-25T23:06:28.342Z,10.37
2017-08-25T23:08:54.127Z,10.67
2017-08-25T23:11:19.907Z,10.77
2017-08-25T23:13:45.703Z,10.10
2017-08-25T23:16:11.536Z,10.30
2017-08-25T23:18:37.302Z,11.40
2017-08-25T23:21:03.067Z,10.20
2017-08-25T23:23:28.866Z,10.93
2017-08-25T23:25:54.638Z,10.83
2017-08-25T23:28:20.398Z,11.50
2017-08-25T23:30:46.158Z,10.80
2017-08-25T23:33:11.946Z,10.53
2017-08-25T23:35:37.725Z,11.00
2017-08-25T23:38:03.507Z,10.30
2017-08-25T23:40:29.271Z,11.37
2017-08-25T23:42:55.082Z,11.70
2017-08-25T23:45:20.852Z,10.50
2017-08-25T23:47:46.695Z,10.87
2017-08-25T23:50:12.491Z,10.27
2017-08-25T23:52:38.254Z,11.70
2017-08-25T23:55:04.067Z,12.10
2017-08-25T23:57:29.855Z,11.57
2017-08-25T23:59:55.607Z,11.97
